地図

経路データ

SID SEASON NUMBER BASIN SUBBASIN NAME ISO_TIME NATURE LAT LON WMO_WIND WMO_PRES WMO_AGENCY TRACK_TYPE DIST2LAND LANDFALL IFLAG USA_AGENCY USA_ATCF_ID USA_LAT USA_LON USA_RECORD USA_STATUS USA_WIND USA_PRES USA_SSHS USA_R34_NE USA_R34_SE USA_R34_SW USA_R34_NW USA_R50_NE USA_R50_SE USA_R50_SW USA_R50_NW USA_R64_NE USA_R64_SE USA_R64_SW USA_R64_NW USA_POCI USA_ROCI USA_RMW USA_EYE TOKYO_LAT TOKYO_LON TOKYO_GRADE TOKYO_WIND TOKYO_PRES TOKYO_R50_DIR TOKYO_R50_LONG TOKYO_R50_SHORT TOKYO_R30_DIR TOKYO_R30_LONG TOKYO_R30_SHORT TOKYO_LAND CMA_LAT CMA_LON CMA_CAT CMA_WIND CMA_PRES HKO_LAT HKO_LON HKO_CAT HKO_WIND HKO_PRES NEWDELHI_LAT NEWDELHI_LON NEWDELHI_GRADE NEWDELHI_WIND NEWDELHI_PRES NEWDELHI_CI NEWDELHI_DP NEWDELHI_POCI REUNION_LAT REUNION_LON REUNION_TYPE REUNION_WIND REUNION_PRES REUNION_TNUM REUNION_CI REUNION_RMW REUNION_R34_NE REUNION_R34_SE REUNION_R34_SW REUNION_R34_NW REUNION_R50_NE REUNION_R50_SE REUNION_R50_SW REUNION_R50_NW REUNION_R64_NE REUNION_R64_SE REUNION_R64_SW REUNION_R64_NW BOM_LAT BOM_LON BOM_TYPE BOM_WIND BOM_PRES BOM_TNUM BOM_CI BOM_RMW BOM_R34_NE BOM_R34_SE BOM_R34_SW BOM_R34_NW BOM_R50_NE BOM_R50_SE BOM_R50_SW BOM_R50_NW BOM_R64_NE BOM_R64_SE BOM_R64_SW BOM_R64_NW BOM_ROCI BOM_POCI BOM_EYE BOM_POS_METHOD BOM_PRES_METHOD NADI_LAT NADI_LON NADI_CAT NADI_WIND NADI_PRES WELLINGTON_LAT WELLINGTON_LON WELLINGTON_WIND WELLINGTON_PRES DS824_LAT DS824_LON DS824_STAGE DS824_WIND DS824_PRES TD9636_LAT TD9636_LON TD9636_STAGE TD9636_WIND TD9636_PRES TD9635_LAT TD9635_LON TD9635_WIND TD9635_PRES TD9635_ROCI NEUMANN_LAT NEUMANN_LON NEUMANN_CLASS NEUMANN_WIND NEUMANN_PRES MLC_LAT MLC_LON MLC_CLASS MLC_WIND MLC_PRES USA_GUST BOM_GUST BOM_GUST_PER REUNION_GUST REUNION_GUST_PER USA_SEAHGT USA_SEARAD_NE USA_SEARAD_SE USA_SEARAD_SW USA_SEARAD_NW STORM_SPEED STORM_DIR
1898014N09113 1898 1 WP MM NOT_NAMED 1898-01-13 16:00:00 NR 8.50000 112.500 main 467 467 __________O___ -1 8.50000 112.500 7 4 286
1898014N09113 1898 1 WP MM NOT_NAMED 1898-01-13 18:00:00 NR 8.53708 112.372 main 471 470 __________P___ -1 8.53708 112.372 7 4 287
1898014N09113 1898 1 WP MM NOT_NAMED 1898-01-13 21:00:00 NR 8.59751 112.178 main 470 446 __________P___ -1 8.59751 112.178 7 4 289
1898014N09113 1898 1 WP MM NOT_NAMED 1898-01-14 00:00:00 NR 8.67040 111.979 main 446 422 __________P___ -1 8.67040 111.979 7 4 292
1898014N09113 1898 1 WP MM NOT_NAMED 1898-01-14 03:00:00 NR 8.76329 111.772 main 422 415 __________P___ -1 8.76329 111.772 7 5 295
1898014N09113 1898 1 WP MM NOT_NAMED 1898-01-14 04:00:00 NR 8.80000 111.700 main 415 399 __________O___ -1 8.80000 111.700 3 5 299
1898014N09113 1898 1 WP MM NOT_NAMED 1898-01-14 06:00:00 NR 8.88240 111.553 main 399 368 __________P___ -1 8.88240 111.553 3 5 301
1898014N09113 1898 1 WP MM NOT_NAMED 1898-01-14 09:00:00 NR 9.01886 111.326 main 368 337 __________P___ -1 9.01886 111.326 3 5 301
1898014N09113 1898 1 WP MM NOT_NAMED 1898-01-14 12:00:00 NR 9.15407 111.098 main 337 313 __________P___ -1 9.15407 111.098 3 5 299
1898014N09113 1898 1 WP MM NOT_NAMED 1898-01-14 15:00:00 NR 9.26928 110.873 main 313 306 __________P___ -1 9.26928 110.873 3 5 296
1898014N09113 1898 1 WP MM NOT_NAMED 1898-01-14 16:00:00 NR 9.30000 110.800 main 306 291 __________O___ -1 9.30000 110.800 4 4 295
1898014N09113 1898 1 WP MM NOT_NAMED 1898-01-14 18:00:00 NR 9.36040 110.671 main 291 277 __________P___ -1 9.36040 110.671 4 4 292
1898014N09113 1898 1 WP MM NOT_NAMED 1898-01-14 21:00:00 NR 9.42628 110.485 main 277 255 __________P___ -1 9.42628 110.485 4 4 284
1898014N09113 1898 1 WP MM NOT_NAMED 1898-01-15 00:00:00 NR 9.45142 110.293 main 255 250 __________P___ -1 9.45142 110.293 4 4 270
1898014N09113 1898 1 WP MM NOT_NAMED 1898-01-15 03:00:00 NR 9.42335 110.079 main 253 246 __________P___ -1 9.42335 110.079 4 4 260
1898014N09113 1898 1 WP MM NOT_NAMED 1898-01-15 04:00:00 NR 9.40000 110.000 main 246 240 __________O___ -1 9.40000 110.000 4 5 250
1898014N09113 1898 1 WP MM NOT_NAMED 1898-01-15 06:00:00 NR 9.32903 109.823 main 243 231 __________P___ -1 9.32903 109.823 4 6 244
1898014N09113 1898 1 WP MM NOT_NAMED 1898-01-15 09:00:00 NR 9.17210 109.532 main 231 228 __________P___ -1 9.17210 109.532 4 7 239
1898014N09113 1898 1 WP MM NOT_NAMED 1898-01-15 12:00:00 NR 8.97680 109.222 main 231 229 __________P___ -1 8.97680 109.222 4 7 237
1898014N09113 1898 1 WP MM NOT_NAMED 1898-01-15 15:00:00 NR 8.76818 108.905 main 234 234 __________P___ -1 8.76818 108.905 4 8 236
1898014N09113 1898 1 WP MM NOT_NAMED 1898-01-15 16:00:00 NR 8.70000 108.800 main 240 236 __________O___ -1 8.70000 108.800 4 7 237
1898014N09113 1898 1 WP MM NOT_NAMED 1898-01-15 18:00:00 NR 8.56978 108.593 main 244 236 __________P___ -1 8.56978 108.593 4 7 238
1898014N09113 1898 1 WP MM NOT_NAMED 1898-01-15 21:00:00 NR 8.38791 108.290 main 236 227 __________P___ -1 8.38791 108.290 4 7 239
1898014N09113 1898 1 WP MM NOT_NAMED 1898-01-16 00:00:00 NR 8.21766 107.992 main 227 212 __________P___ -1 8.21766 107.992 4 7 240
1898014N09113 1898 1 WP MM NOT_NAMED 1898-01-16 03:00:00 NR 8.05398 107.698 main 212 213 __________P___ -1 8.05398 107.698 4 7 241
1898014N09113 1898 1 WP MM NOT_NAMED 1898-01-16 04:00:00 NR 8.00000 107.600 main 213 __________O___ -1 8.00000 107.600 7 7 241

デジタル台風データ・検索

IBTrACS Databaseについて

本データベースは、米国NOAAが公開する1842年以降の世界の熱帯低気圧のベストトラックデータアーカイブInternational Best Track Archive for Climate Stewardship (IBTrACS)を、ウェブで閲覧しやすい形式に変換したものです。

最終更新日:2021-10-21